createdAt,value
2018-10-03T00:00:20.827Z,11.78
2018-10-03T00:01:20.750Z,11.80
2018-10-03T00:02:20.664Z,11.68
2018-10-03T00:03:20.585Z,11.68
2018-10-03T00:04:20.506Z,11.72
2018-10-03T00:05:20.426Z,11.70
2018-10-03T00:06:20.346Z,11.70
2018-10-03T00:07:20.287Z,11.73
2018-10-03T00:08:20.187Z,11.70
2018-10-03T00:09:20.107Z,11.77
2018-10-03T00:10:20.028Z,11.78
2018-10-03T00:11:19.957Z,11.73
2018-10-03T00:12:19.865Z,11.73
2018-10-03T00:13:19.785Z,11.78
2018-10-03T00:14:19.723Z,11.73
2018-10-03T00:15:19.637Z,11.77
2018-10-03T00:16:19.545Z,11.75
2018-10-03T00:17:19.465Z,11.81
2018-10-03T00:18:19.385Z,11.75
2018-10-03T00:19:19.306Z,11.81
2018-10-03T00:20:19.228Z,11.75
2018-10-03T00:21:19.143Z,11.72
2018-10-03T00:22:19.072Z,11.80
2018-10-03T00:23:19.049Z,11.84
2018-10-03T00:24:18.906Z,11.80
2018-10-03T00:25:18.826Z,11.75
2018-10-03T00:26:18.744Z,11.80
2018-10-03T00:27:18.666Z,11.80
2018-10-03T00:28:18.586Z,11.80
2018-10-03T00:29:18.505Z,11.75
2018-10-03T00:30:18.431Z,11.78
2018-10-03T00:31:18.344Z,11.77
2018-10-03T00:32:18.267Z,11.84
2018-10-03T00:33:18.188Z,11.78
2018-10-03T00:34:18.105Z,11.78
2018-10-03T00:35:18.043Z,11.78
2018-10-03T00:36:17.945Z,11.75
2018-10-03T00:37:17.870Z,11.69
2018-10-03T00:38:17.786Z,11.83
2018-10-03T00:39:17.705Z,11.83
2018-10-03T00:40:17.628Z,11.75
2018-10-03T00:41:17.545Z,11.86
2018-10-03T00:42:17.465Z,11.75
2018-10-03T00:43:17.386Z,11.80
2018-10-03T00:44:17.308Z,11.81
2018-10-03T00:45:17.226Z,11.75
2018-10-03T00:46:17.145Z,11.80
2018-10-03T00:47:17.069Z,11.78
2018-10-03T00:48:16.989Z,11.80
2018-10-03T00:49:16.906Z,11.80
2018-10-03T00:50:16.826Z,11.81
2018-10-03T00:51:16.747Z,11.83
2018-10-03T00:52:16.666Z,11.81
2018-10-03T00:53:16.587Z,11.83
2018-10-03T00:54:16.509Z,11.83
2018-10-03T00:55:16.428Z,11.83
2018-10-03T00:56:16.348Z,11.83
2018-10-03T00:57:16.267Z,11.81
2018-10-03T00:58:16.186Z,11.81
2018-10-03T00:59:16.107Z,11.83
2018-10-03T01:00:16.029Z,11.81
2018-10-03T01:01:15.959Z,11.77
2018-10-03T01:02:15.868Z,11.80
2018-10-03T01:03:15.788Z,11.81
2018-10-03T01:04:15.708Z,11.81
2018-10-03T01:05:15.628Z,11.80
2018-10-03T01:06:15.548Z,11.75
2018-10-03T01:07:15.468Z,11.81
2018-10-03T01:08:15.404Z,11.78
2018-10-03T01:09:15.310Z,11.78
2018-10-03T01:10:15.232Z,11.75
2018-10-03T01:11:15.149Z,11.87
2018-10-03T01:12:15.069Z,11.86
2018-10-03T01:13:14.986Z,11.88
2018-10-03T01:14:14.906Z,11.97
2018-10-03T01:15:14.851Z,11.88
2018-10-03T01:16:14.754Z,11.80
2018-10-03T01:17:14.682Z,11.83
2018-10-03T01:18:14.587Z,11.78
2018-10-03T01:19:14.535Z,11.84
2018-10-03T01:20:14.429Z,11.87
2018-10-03T01:21:14.355Z,11.86
2018-10-03T01:22:14.279Z,11.87
2018-10-03T01:23:14.191Z,11.80
2018-10-03T01:24:14.109Z,11.94
2018-10-03T01:25:14.041Z,11.84
2018-10-03T01:26:13.968Z,11.90
2018-10-03T01:27:13.875Z,11.88
2018-10-03T01:28:13.794Z,11.88
2018-10-03T01:29:13.712Z,11.88
2018-10-03T01:30:13.632Z,11.80
2018-10-03T01:31:13.554Z,11.88
2018-10-03T01:32:13.469Z,11.86
2018-10-03T01:33:13.394Z,11.77
2018-10-03T01:34:13.309Z,11.81
2018-10-03T01:35:13.229Z,11.73
2018-10-03T01:36:13.149Z,11.90
2018-10-03T01:37:13.074Z,11.90
2018-10-03T01:38:12.996Z,11.77
2018-10-03T01:39:12.918Z,11.84
2018-10-03T01:40:21.496Z,11.91
2018-10-03T01:42:17.175Z,11.80
2018-10-03T01:43:17.046Z,11.83
2018-10-03T01:45:32.610Z,11.80
2018-10-03T01:46:32.526Z,11.80
2018-10-03T01:47:32.440Z,11.84
2018-10-03T01:48:32.365Z,11.87
2018-10-03T01:49:32.273Z,11.78
2018-10-03T01:50:32.192Z,11.84
2018-10-03T01:51:32.113Z,11.84
2018-10-03T01:52:32.031Z,11.78
2018-10-03T01:53:31.953Z,11.84
2018-10-03T01:54:31.873Z,11.84
2018-10-03T01:55:31.792Z,11.90
2018-10-03T01:56:31.729Z,11.97
2018-10-03T01:57:31.632Z,11.87
2018-10-03T01:58:31.552Z,11.88
2018-10-03T01:59:31.471Z,11.84
2018-10-03T02:00:31.404Z,11.84
2018-10-03T02:01:31.323Z,11.86
2018-10-03T02:02:31.237Z,11.84
2018-10-03T02:03:31.162Z,11.99
2018-10-03T02:04:31.078Z,11.90
2018-10-03T02:05:30.996Z,11.90
2018-10-03T02:06:30.914Z,11.88
2018-10-03T02:07:30.833Z,11.86
2018-10-03T02:08:30.752Z,11.95
2018-10-03T02:09:30.674Z,11.88
2018-10-03T02:10:30.593Z,11.88
2018-10-03T02:11:30.530Z,11.91
2018-10-03T02:12:30.434Z,11.90
2018-10-03T02:13:30.375Z,11.90
2018-10-03T02:14:30.272Z,11.90
2018-10-03T02:15:30.194Z,11.95
2018-10-03T02:16:30.115Z,11.95
2018-10-03T02:17:30.035Z,11.94
2018-10-03T02:18:29.954Z,11.90
2018-10-03T02:19:29.872Z,11.94
2018-10-03T02:20:29.793Z,11.95
2018-10-03T02:21:29.714Z,11.91
2018-10-03T02:22:29.634Z,11.91
2018-10-03T02:23:29.557Z,11.95
2018-10-03T02:24:29.474Z,11.90
2018-10-03T02:25:29.412Z,11.94
2018-10-03T02:26:29.354Z,11.91
2018-10-03T02:27:29.239Z,11.95
2018-10-03T02:28:29.158Z,11.97
2018-10-03T02:29:29.081Z,11.88
2018-10-03T02:30:28.996Z,11.84
2018-10-03T02:31:28.913Z,11.99
2018-10-03T02:32:28.845Z,11.88
2018-10-03T02:33:28.756Z,11.95
2018-10-03T02:34:28.672Z,11.86
2018-10-03T02:35:28.601Z,11.99
2018-10-03T02:36:28.519Z,11.99
2018-10-03T02:37:28.459Z,11.97
2018-10-03T02:38:28.353Z,11.91
2018-10-03T02:39:28.281Z,11.99
2018-10-03T02:40:28.217Z,11.97
2018-10-03T02:41:28.120Z,11.88
2018-10-03T02:42:28.036Z,11.84
2018-10-03T02:43:27.953Z,11.86
2018-10-03T02:44:27.875Z,11.94
2018-10-03T02:45:27.795Z,11.97
2018-10-03T02:46:27.718Z,11.86
2018-10-03T02:47:27.637Z,11.90
2018-10-03T02:48:27.562Z,11.94
2018-10-03T02:49:27.498Z,11.99
2018-10-03T02:50:27.415Z,11.94
2018-10-03T02:51:27.334Z,11.99
2018-10-03T02:52:27.235Z,11.95
2018-10-03T02:53:27.164Z,11.94
2018-10-03T02:54:27.083Z,12.00
2018-10-03T02:55:26.997Z,12.03
2018-10-03T02:56:26.913Z,11.95
2018-10-03T02:57:26.856Z,11.95
2018-10-03T02:58:26.757Z,11.99
2018-10-03T02:59:26.683Z,11.97
2018-10-03T03:00:26.601Z,11.95
2018-10-03T03:01:26.537Z,11.99
2018-10-03T03:02:26.444Z,11.97
2018-10-03T03:03:26.363Z,11.97
2018-10-03T03:04:26.287Z,11.99
2018-10-03T03:05:26.197Z,11.97
2018-10-03T03:06:26.129Z,11.99
2018-10-03T03:07:26.042Z,12.00
2018-10-03T03:08:25.968Z,11.95
2018-10-03T03:09:25.887Z,11.99
2018-10-03T03:10:25.819Z,11.97
2018-10-03T03:11:25.717Z,11.99
2018-10-03T03:12:25.644Z,12.00
2018-10-03T03:13:25.561Z,12.02
2018-10-03T03:14:25.480Z,11.94
2018-10-03T03:15:25.422Z,11.94
2018-10-03T03:16:25.342Z,11.99
2018-10-03T03:17:25.239Z,11.95
2018-10-03T03:18:25.163Z,11.95
2018-10-03T03:19:25.077Z,11.91
2018-10-03T03:20:25.002Z,11.97
2018-10-03T03:21:24.922Z,11.99
2018-10-03T03:22:24.842Z,11.99
2018-10-03T03:23:24.781Z,11.99
2018-10-03T03:24:24.679Z,11.99
2018-10-03T03:25:24.598Z,11.99
2018-10-03T03:26:24.517Z,11.94
2018-10-03T03:27:24.436Z,11.94
2018-10-03T03:28:24.360Z,12.03
2018-10-03T03:29:24.280Z,11.90
2018-10-03T03:30:24.215Z,11.90
2018-10-03T03:31:24.123Z,11.91
2018-10-03T03:32:24.038Z,11.94
2018-10-03T03:33:23.966Z,11.94
2018-10-03T03:34:23.883Z,11.95
2018-10-03T03:35:23.808Z,11.95
2018-10-03T03:36:23.725Z,11.90
2018-10-03T03:37:23.639Z,11.95
2018-10-03T03:38:23.558Z,11.97
2018-10-03T03:39:23.478Z,11.94
2018-10-03T03:40:23.401Z,11.97
2018-10-03T03:41:23.321Z,11.83
2018-10-03T03:42:23.241Z,11.95
2018-10-03T03:43:23.181Z,11.84
2018-10-03T03:44:23.080Z,11.88
2018-10-03T03:45:23.001Z,11.95
2018-10-03T03:46:22.920Z,11.84
2018-10-03T03:47:22.836Z,11.97
2018-10-03T03:48:22.760Z,11.94
2018-10-03T03:49:22.687Z,11.99
2018-10-03T03:50:22.605Z,11.99
2018-10-03T03:51:22.519Z,11.97
2018-10-03T03:52:22.441Z,11.94
2018-10-03T03:53:22.360Z,11.94
2018-10-03T03:54:22.289Z,11.97
2018-10-03T03:55:22.217Z,11.88
2018-10-03T03:56:22.119Z,11.88
2018-10-03T03:57:22.039Z,11.86
2018-10-03T03:58:21.986Z,11.90
2018-10-03T03:59:21.891Z,11.88
2018-10-03T04:00:21.800Z,11.88
2018-10-03T04:01:21.723Z,11.91
2018-10-03T04:02:21.642Z,11.91
2018-10-03T04:03:21.560Z,11.95
2018-10-03T04:04:21.488Z,11.95
2018-10-03T04:05:21.402Z,11.97
2018-10-03T04:06:21.338Z,11.94
2018-10-03T04:07:21.246Z,11.91
2018-10-03T04:08:21.158Z,11.88
2018-10-03T04:09:21.079Z,11.91
2018-10-03T04:10:21.001Z,11.91
2018-10-03T04:11:20.921Z,11.94
2018-10-03T04:12:20.852Z,11.91
2018-10-03T04:13:20.763Z,11.83
2018-10-03T04:14:20.681Z,11.84
2018-10-03T04:15:20.601Z,11.87
2018-10-03T04:16:20.518Z,11.88
2018-10-03T04:17:20.445Z,11.88
2018-10-03T04:18:20.360Z,11.88
2018-10-03T04:19:20.281Z,11.90
2018-10-03T04:20:20.224Z,11.88
2018-10-03T04:21:20.122Z,11.94
2018-10-03T04:22:20.040Z,11.84
2018-10-03T04:23:19.959Z,11.88
2018-10-03T04:24:19.889Z,11.87
2018-10-03T04:25:19.807Z,11.86
2018-10-03T04:26:19.721Z,12.00
2018-10-03T04:27:19.649Z,11.87
2018-10-03T04:28:19.561Z,11.97
2018-10-03T04:29:19.481Z,11.83
2018-10-03T04:30:19.403Z,11.95
2018-10-03T04:31:19.327Z,11.90
2018-10-03T04:32:19.242Z,11.88
2018-10-03T04:33:19.160Z,11.84
2018-10-03T04:34:19.081Z,11.87
2018-10-03T04:35:19.000Z,11.91
2018-10-03T04:36:18.933Z,11.90
2018-10-03T04:37:18.839Z,11.88
2018-10-03T04:38:18.767Z,11.88
2018-10-03T04:39:18.680Z,11.94
2018-10-03T04:40:18.607Z,11.88
2018-10-03T04:41:18.523Z,11.81
2018-10-03T04:42:18.529Z,11.88
2018-10-03T04:43:18.360Z,11.88
2018-10-03T04:44:18.291Z,11.83
2018-10-03T04:45:18.200Z,11.86
2018-10-03T04:46:18.124Z,11.87
2018-10-03T04:47:18.043Z,11.99
2018-10-03T04:48:17.962Z,11.91
2018-10-03T04:49:17.900Z,11.91
2018-10-03T04:50:17.826Z,11.91
2018-10-03T04:51:17.719Z,11.91
2018-10-03T04:52:17.648Z,11.83
2018-10-03T04:53:17.560Z,11.90
2018-10-03T04:54:17.482Z,11.87
2018-10-03T04:55:17.400Z,11.88
2018-10-03T04:56:17.331Z,11.88
2018-10-03T04:57:17.247Z,11.86
2018-10-03T04:58:17.160Z,11.90
2018-10-03T04:59:17.080Z,11.94
2018-10-03T05:00:17.006Z,11.88
2018-10-03T05:01:16.923Z,11.86
2018-10-03T05:02:16.855Z,11.91
2018-10-03T05:03:16.764Z,11.91
2018-10-03T05:04:16.690Z,11.99
2018-10-03T05:05:16.603Z,11.94
2018-10-03T05:06:16.524Z,11.88
2018-10-03T05:07:16.452Z,11.95
2018-10-03T05:08:16.361Z,11.95
2018-10-03T05:09:16.284Z,11.90
2018-10-03T05:10:16.199Z,11.95
2018-10-03T05:11:16.186Z,12.00
2018-10-03T05:12:16.047Z,11.95
2018-10-03T05:13:15.963Z,11.97
2018-10-03T05:14:15.886Z,11.77
2018-10-03T05:15:15.818Z,11.99
2018-10-03T05:16:15.736Z,11.99
2018-10-03T05:17:15.640Z,11.95
2018-10-03T05:18:15.566Z,11.86
2018-10-03T05:19:15.481Z,11.99
2018-10-03T05:20:15.407Z,11.87
2018-10-03T05:21:15.335Z,11.95
2018-10-03T05:22:15.238Z,11.91
2018-10-03T05:23:15.169Z,11.91
2018-10-03T05:24:15.088Z,11.97
2018-10-03T05:25:15.006Z,11.91
2018-10-03T05:26:14.932Z,11.94
2018-10-03T05:27:14.842Z,11.84
2018-10-03T05:28:14.760Z,11.90
2018-10-03T05:29:14.693Z,11.95
2018-10-03T05:30:14.600Z,11.91
2018-10-03T05:31:14.520Z,11.95
2018-10-03T05:32:14.448Z,11.91
2018-10-03T05:33:14.378Z,11.86
2018-10-03T05:34:14.280Z,11.97
2018-10-03T05:35:14.200Z,11.95
2018-10-03T05:36:14.123Z,11.94
2018-10-03T05:37:14.057Z,11.86
2018-10-03T05:38:13.965Z,11.97
2018-10-03T05:39:13.883Z,11.94
2018-10-03T05:40:13.800Z,11.95
2018-10-03T05:41:13.722Z,11.97
2018-10-03T05:42:13.640Z,11.95
2018-10-03T05:43:13.561Z,11.97
2018-10-03T05:44:13.480Z,11.97
2018-10-03T05:45:13.402Z,12.09
2018-10-03T05:46:13.322Z,11.97
2018-10-03T05:47:20.904Z,12.00
2018-10-03T05:49:25.228Z,11.97
2018-10-03T05:50:25.119Z,12.06
2018-10-03T05:52:29.412Z,12.00
2018-10-03T05:53:29.334Z,12.09
2018-10-03T05:55:33.679Z,12.09
2018-10-03T05:56:34.553Z,12.03
2018-10-03T05:58:37.881Z,12.00
2018-10-03T05:59:37.776Z,12.04
2018-10-03T06:01:42.266Z,12.04
2018-10-03T06:02:43.267Z,12.04
2018-10-03T06:04:47.575Z,11.97
2018-10-03T06:05:46.407Z,11.97
2018-10-03T06:07:43.071Z,12.00
2018-10-03T06:08:42.983Z,12.13
2018-10-03T06:10:47.375Z,12.12
2018-10-03T06:11:47.226Z,12.09
2018-10-03T06:13:59.237Z,12.09
2018-10-03T06:14:59.071Z,12.13
2018-10-03T06:16:55.742Z,12.09
2018-10-03T06:18:03.308Z,12.17
2018-10-03T06:20:07.644Z,12.15
2018-10-03T06:20:59.870Z,12.12
2018-10-03T06:21:59.823Z,12.15
2018-10-03T06:22:59.741Z,12.15
2018-10-03T06:23:59.630Z,12.17
2018-10-03T06:24:59.570Z,12.12
2018-10-03T06:25:59.471Z,12.15
2018-10-03T06:26:59.390Z,12.24
2018-10-03T06:27:59.474Z,12.20
2018-10-03T06:28:59.228Z,12.21
2018-10-03T06:29:59.156Z,12.20
2018-10-03T06:30:59.069Z,12.21
2018-10-03T06:31:58.990Z,12.24
2018-10-03T06:32:58.909Z,12.24
2018-10-03T06:34:06.476Z,12.24
2018-10-03T06:36:11.836Z,12.24
2018-10-03T06:37:11.717Z,12.28
2018-10-03T06:39:17.047Z,12.24
2018-10-03T06:40:17.979Z,12.29
2018-10-03T06:42:22.274Z,12.37
2018-10-03T06:43:21.194Z,12.28
2018-10-03T06:45:26.461Z,12.36
2018-10-03T06:46:26.404Z,12.36
2018-10-03T06:48:30.672Z,12.32
2018-10-03T06:49:22.913Z,12.37
2018-10-03T06:50:22.844Z,12.39
2018-10-03T06:51:22.770Z,12.40
2018-10-03T06:52:22.675Z,12.37
2018-10-03T06:53:22.596Z,12.42
2018-10-03T06:54:22.511Z,12.40
2018-10-03T06:55:22.432Z,12.42
2018-10-03T06:56:22.363Z,12.37
2018-10-03T06:57:22.280Z,12.39
2018-10-03T06:58:22.196Z,12.40
2018-10-03T06:59:22.122Z,12.43
2018-10-03T07:00:22.031Z,12.43
2018-10-03T07:01:21.969Z,12.42
2018-10-03T07:02:21.873Z,12.36
2018-10-03T07:03:21.793Z,12.45
2018-10-03T07:04:21.725Z,12.39
2018-10-03T07:05:21.652Z,12.40
2018-10-03T07:06:21.575Z,12.42
2018-10-03T07:07:21.473Z,12.50
2018-10-03T07:08:21.393Z,12.49
2018-10-03T07:09:21.324Z,12.50
2018-10-03T07:10:21.254Z,12.61
2018-10-03T07:11:21.154Z,12.57
2018-10-03T07:12:21.087Z,12.54
2018-10-03T07:13:21.010Z,12.50
2018-10-03T07:14:20.915Z,12.58
2018-10-03T07:15:20.837Z,12.54
2018-10-03T07:16:20.789Z,12.50
2018-10-03T07:17:20.681Z,12.50
2018-10-03T07:18:20.602Z,12.58
2018-10-03T07:19:20.517Z,12.58
2018-10-03T07:20:20.547Z,12.70
2018-10-03T07:21:20.375Z,12.68
2018-10-03T07:22:20.285Z,12.70
2018-10-03T07:23:20.212Z,12.65
2018-10-03T07:24:20.125Z,12.64
2018-10-03T07:25:20.042Z,12.62
2018-10-03T07:26:20.049Z,12.61
2018-10-03T07:27:19.896Z,12.73
2018-10-03T07:28:19.831Z,12.64
2018-10-03T07:29:19.729Z,12.73
2018-10-03T07:30:19.645Z,12.68
2018-10-03T07:31:19.568Z,12.70
2018-10-03T07:32:19.486Z,12.72
2018-10-03T07:33:19.413Z,12.70
2018-10-03T07:34:19.335Z,12.79
2018-10-03T07:35:19.248Z,12.80
2018-10-03T07:36:19.176Z,12.83
2018-10-03T07:37:19.090Z,12.86
2018-10-03T07:38:19.015Z,12.75
2018-10-03T07:39:18.938Z,12.76
2018-10-03T07:40:20.346Z,12.80
2018-10-03T07:41:25.936Z,12.75
2018-10-03T07:43:22.628Z,12.83
2018-10-03T07:44:22.504Z,12.86
2018-10-03T07:45:22.423Z,12.79
2018-10-03T07:46:22.348Z,12.79
2018-10-03T07:47:22.266Z,12.85
2018-10-03T07:48:22.184Z,12.83
2018-10-03T07:49:22.112Z,12.85
2018-10-03T07:50:22.061Z,12.90
2018-10-03T07:51:21.953Z,12.85
2018-10-03T07:52:21.869Z,12.86
2018-10-03T07:53:21.790Z,12.90
2018-10-03T07:54:21.713Z,12.93
2018-10-03T07:55:21.631Z,12.90
2018-10-03T07:56:21.635Z,12.95
2018-10-03T07:57:21.473Z,13.00
2018-10-03T07:58:21.393Z,12.98
2018-10-03T07:59:21.315Z,12.97
2018-10-03T08:00:21.235Z,12.94
2018-10-03T08:01:21.156Z,12.95
2018-10-03T08:02:21.078Z,13.08
2018-10-03T08:03:21.030Z,13.09
2018-10-03T08:04:20.919Z,13.05
2018-10-03T08:05:20.845Z,13.04
2018-10-03T08:06:20.771Z,13.09
2018-10-03T08:07:20.682Z,13.23
2018-10-03T08:08:20.610Z,13.11
2018-10-03T08:09:20.525Z,13.23
2018-10-03T08:10:20.451Z,13.27
2018-10-03T08:11:20.368Z,13.25
2018-10-03T08:12:20.289Z,13.28
2018-10-03T08:13:20.210Z,13.28
2018-10-03T08:14:20.137Z,13.25
2018-10-03T08:15:20.054Z,13.28
2018-10-03T08:16:19.974Z,13.23
2018-10-03T08:17:19.932Z,13.28
2018-10-03T08:18:19.816Z,13.35
2018-10-03T08:19:19.749Z,13.22
2018-10-03T08:20:19.665Z,13.35
2018-10-03T08:21:19.596Z,13.35
2018-10-03T08:22:19.503Z,13.41
2018-10-03T08:23:19.425Z,13.41
2018-10-03T08:24:19.346Z,13.42
2018-10-03T08:25:19.273Z,13.42
2018-10-03T08:26:19.193Z,13.41
2018-10-03T08:27:19.110Z,13.46
2018-10-03T08:28:19.033Z,13.39
2018-10-03T08:29:18.954Z,13.39
2018-10-03T08:30:18.875Z,13.44
2018-10-03T08:31:18.796Z,13.42
2018-10-03T08:32:18.779Z,13.41
2018-10-03T08:33:18.712Z,13.38
2018-10-03T08:34:18.560Z,13.41
2018-10-03T08:35:18.488Z,13.42
2018-10-03T08:36:18.405Z,13.39
2018-10-03T08:37:18.323Z,13.33
2018-10-03T08:38:18.247Z,13.35
2018-10-03T08:39:18.168Z,13.28
2018-10-03T08:40:18.090Z,13.33
2018-10-03T08:41:18.022Z,13.31
2018-10-03T08:42:17.937Z,13.27
2018-10-03T08:43:17.854Z,13.20
2018-10-03T08:44:17.775Z,13.28
2018-10-03T08:45:17.698Z,13.23
2018-10-03T08:46:17.617Z,13.19
2018-10-03T08:47:17.538Z,13.19
2018-10-03T08:48:17.466Z,13.19
2018-10-03T08:49:17.391Z,13.13
2018-10-03T08:50:17.303Z,13.13
2018-10-03T08:51:17.225Z,13.13
2018-10-03T08:52:17.166Z,13.11
2018-10-03T08:53:17.075Z,13.13
2018-10-03T08:54:16.987Z,13.15
2018-10-03T08:55:16.914Z,13.18
2018-10-03T08:56:16.831Z,13.11
2018-10-03T08:57:16.752Z,13.13
2018-10-03T08:58:16.736Z,13.19
2018-10-03T08:59:16.593Z,13.12
2018-10-03T09:00:16.525Z,13.13
2018-10-03T09:01:16.438Z,13.09
2018-10-03T09:02:16.364Z,13.19
2018-10-03T09:03:16.295Z,13.11
2018-10-03T09:04:16.201Z,13.12
2018-10-03T09:05:16.124Z,13.30
2018-10-03T09:06:16.051Z,13.25
2018-10-03T09:07:15.968Z,13.28
2018-10-03T09:08:15.886Z,13.20
2018-10-03T09:09:15.808Z,13.22
2018-10-03T09:10:15.730Z,13.18
2018-10-03T09:11:15.653Z,13.22
2018-10-03T09:12:15.574Z,13.19
2018-10-03T09:13:15.495Z,13.33
2018-10-03T09:14:15.414Z,13.37
2018-10-03T09:15:15.346Z,13.38
2018-10-03T09:16:15.263Z,13.47
2018-10-03T09:17:15.181Z,13.49
2018-10-03T09:18:15.101Z,13.47
2018-10-03T09:19:15.023Z,13.57
2018-10-03T09:20:14.945Z,13.50
2018-10-03T09:21:14.869Z,13.52
2018-10-03T09:22:14.793Z,13.63
2018-10-03T09:23:14.722Z,13.67
2018-10-03T09:24:14.637Z,13.62
2018-10-03T09:25:14.554Z,13.77
2018-10-03T09:26:14.480Z,13.79
2018-10-03T09:27:14.401Z,13.81
2018-10-03T09:28:14.371Z,13.81
2018-10-03T09:29:14.242Z,13.81
2018-10-03T09:30:14.166Z,13.79
2018-10-03T09:31:14.088Z,13.71
2018-10-03T09:32:14.022Z,13.78
2018-10-03T09:33:13.928Z,13.75
2018-10-03T09:34:13.848Z,13.86
2018-10-03T09:35:13.773Z,13.78
2018-10-03T09:36:13.694Z,13.87
2018-10-03T09:37:13.624Z,13.87
2018-10-03T09:38:13.544Z,13.95
2018-10-03T09:39:13.460Z,13.96
2018-10-03T09:40:13.382Z,13.92
2018-10-03T09:41:13.306Z,14.08
2018-10-03T09:42:13.229Z,14.14
2018-10-03T09:43:13.150Z,14.20
2018-10-03T09:44:13.072Z,14.37
2018-10-03T09:45:12.996Z,14.30
2018-10-03T09:46:12.915Z,14.47
2018-10-03T09:47:12.853Z,14.40
2018-10-03T09:48:12.759Z,14.45
2018-10-03T09:49:12.685Z,14.55
2018-10-03T09:50:12.610Z,14.58
2018-10-03T09:51:12.531Z,14.66
2018-10-03T09:52:12.452Z,14.63
2018-10-03T09:53:12.374Z,14.66
2018-10-03T09:54:12.307Z,14.73
2018-10-03T09:55:12.230Z,14.66
2018-10-03T09:56:12.144Z,14.65
2018-10-03T09:57:12.074Z,14.79
2018-10-03T09:58:11.991Z,14.78
2018-10-03T09:59:11.911Z,14.73
2018-10-03T10:00:11.863Z,14.78
2018-10-03T10:01:11.769Z,14.77
2018-10-03T10:02:11.685Z,14.77
2018-10-03T10:03:11.610Z,14.79
2018-10-03T10:04:11.527Z,14.86
2018-10-03T10:05:11.450Z,14.77
2018-10-03T10:06:11.395Z,14.79
2018-10-03T10:07:11.301Z,14.72
2018-10-03T10:08:11.217Z,14.79
2018-10-03T10:09:11.142Z,14.81
2018-10-03T10:10:11.107Z,14.81
2018-10-03T10:11:11.077Z,14.77
2018-10-03T10:12:10.920Z,14.77
2018-10-03T10:13:10.834Z,14.81
2018-10-03T10:14:10.754Z,14.78
2018-10-03T10:15:10.678Z,14.72
2018-10-03T10:16:10.616Z,14.78
2018-10-03T10:17:10.524Z,14.84
2018-10-03T10:18:10.452Z,14.85
2018-10-03T10:19:10.375Z,14.84
2018-10-03T10:20:10.298Z,14.84
2018-10-03T10:21:10.217Z,14.85
2018-10-03T10:22:10.136Z,14.92
2018-10-03T10:23:10.062Z,14.94
2018-10-03T10:24:09.983Z,15.10
2018-10-03T10:25:09.907Z,15.10
2018-10-03T10:26:09.830Z,15.25
2018-10-03T10:27:09.751Z,15.25
2018-10-03T10:28:09.676Z,15.40
2018-10-03T10:29:09.614Z,15.47
2018-10-03T10:30:09.522Z,15.47
2018-10-03T10:31:09.447Z,15.68
2018-10-03T10:32:09.388Z,15.72
2018-10-03T10:33:09.321Z,15.70
2018-10-03T10:34:09.215Z,15.64
2018-10-03T10:35:09.141Z,15.67
2018-10-03T10:36:09.067Z,15.95
2018-10-03T10:37:08.995Z,16.04
2018-10-03T10:38:08.910Z,16.10
2018-10-03T10:39:08.837Z,16.12
2018-10-03T10:40:08.774Z,16.42
2018-10-03T10:41:08.806Z,16.61
2018-10-03T10:42:08.608Z,16.78
2018-10-03T10:43:08.534Z,17.01
2018-10-03T10:44:08.459Z,17.24
2018-10-03T10:45:08.389Z,17.38
2018-10-03T10:46:08.308Z,17.65
2018-10-03T10:47:08.237Z,17.76
2018-10-03T10:48:08.162Z,18.10
2018-10-03T10:49:08.088Z,18.29
2018-10-03T10:50:08.077Z,18.53
2018-10-03T10:51:07.945Z,18.65
2018-10-03T10:52:07.875Z,18.81
2018-10-03T10:53:07.803Z,19.14
2018-10-03T10:54:07.726Z,19.29
2018-10-03T10:55:07.659Z,19.30
2018-10-03T10:56:07.583Z,19.36
2018-10-03T10:57:07.514Z,19.30
2018-10-03T10:58:07.443Z,19.19
2018-10-03T10:59:07.372Z,19.29
2018-10-03T11:00:07.302Z,19.47
2018-10-03T11:01:07.235Z,19.22
2018-10-03T11:02:07.172Z,19.16
2018-10-03T11:03:07.093Z,19.27
2018-10-03T11:04:07.025Z,18.80
2018-10-03T11:05:06.956Z,18.44
2018-10-03T11:06:06.922Z,18.05
2018-10-03T11:07:06.824Z,17.85
2018-10-03T11:08:06.752Z,17.79
2018-10-03T11:09:06.682Z,17.76
2018-10-03T11:10:06.612Z,17.54
2018-10-03T11:11:06.540Z,17.31
2018-10-03T11:12:06.473Z,17.16
2018-10-03T11:13:06.403Z,17.08
2018-10-03T11:14:06.330Z,17.23
2018-10-03T11:15:06.262Z,17.06
2018-10-03T11:16:06.185Z,16.96
2018-10-03T11:17:06.149Z,16.84
2018-10-03T11:18:06.038Z,16.64
2018-10-03T11:19:05.967Z,16.56
2018-10-03T11:20:05.901Z,16.56
2018-10-03T11:21:05.823Z,16.50
2018-10-03T11:22:05.747Z,16.46
2018-10-03T11:23:05.678Z,16.41
2018-10-03T11:24:05.786Z,16.36
2018-10-03T11:25:05.528Z,16.31
2018-10-03T11:26:05.454Z,16.24
2018-10-03T11:27:05.381Z,16.91
2018-10-03T11:28:05.308Z,16.90
2018-10-03T11:29:05.232Z,16.93
2018-10-03T11:30:05.163Z,16.68
2018-10-03T11:31:05.107Z,16.87
2018-10-03T11:32:05.047Z,17.56
2018-10-03T11:33:04.937Z,17.78
2018-10-03T11:34:04.865Z,18.31
2018-10-03T11:35:04.790Z,18.86
2018-10-03T11:36:04.718Z,19.18
2018-10-03T11:37:04.647Z,18.70
2018-10-03T11:38:04.590Z,18.84
2018-10-03T11:39:04.508Z,18.90
2018-10-03T11:40:04.435Z,19.19
2018-10-03T11:41:04.367Z,19.29
2018-10-03T11:42:04.294Z,19.58
2018-10-03T11:43:04.229Z,19.84
2018-10-03T11:44:04.165Z,19.22
2018-10-03T11:45:04.094Z,19.36
2018-10-03T11:46:04.021Z,19.77
2018-10-03T11:47:03.960Z,20.06
2018-10-03T11:48:03.894Z,20.44
2018-10-03T11:49:03.820Z,20.32
2018-10-03T11:50:03.757Z,19.85
2018-10-03T11:51:03.684Z,20.16
2018-10-03T11:52:03.618Z,19.88
2018-10-03T11:53:03.550Z,20.09
2018-10-03T11:54:03.481Z,19.88
2018-10-03T11:55:03.414Z,19.82
2018-10-03T11:56:03.347Z,19.19
2018-10-03T11:57:03.339Z,18.84
2018-10-03T11:58:03.217Z,18.38
2018-10-03T11:59:03.144Z,18.25
2018-10-03T12:00:03.077Z,18.00
2018-10-03T12:01:03.008Z,18.03
2018-10-03T12:02:02.958Z,18.68
2018-10-03T12:03:03.000Z,18.60
2018-10-03T12:04:02.799Z,19.08
2018-10-03T12:05:02.741Z,19.73
2018-10-03T12:06:02.668Z,20.48
2018-10-03T12:07:02.590Z,20.77
2018-10-03T12:08:02.521Z,21.06
2018-10-03T12:09:02.454Z,21.27
2018-10-03T12:10:02.400Z,21.33
2018-10-03T12:11:02.325Z,21.62
2018-10-03T12:12:02.251Z,21.48
2018-10-03T12:13:02.201Z,21.72
2018-10-03T12:14:02.155Z,22.32
2018-10-03T12:15:02.048Z,22.80
2018-10-03T12:16:01.982Z,23.00
2018-10-03T12:17:01.921Z,22.06
2018-10-03T12:18:01.857Z,21.42
2018-10-03T12:19:01.783Z,20.52
2018-10-03T12:20:01.721Z,21.43
2018-10-03T12:21:01.650Z,21.25
2018-10-03T12:22:01.583Z,21.95
2018-10-03T12:23:01.517Z,21.61
2018-10-03T12:24:01.452Z,21.00
2018-10-03T12:25:01.403Z,20.47
2018-10-03T12:26:01.317Z,20.19
2018-10-03T12:27:01.249Z,19.89
2018-10-03T12:28:01.200Z,19.49
2018-10-03T12:29:01.119Z,19.29
2018-10-03T12:30:01.046Z,18.84
2018-10-03T12:31:00.978Z,18.74
2018-10-03T12:32:00.908Z,18.65
2018-10-03T12:33:00.839Z,18.84
2018-10-03T12:34:00.769Z,18.83
2018-10-03T12:35:00.700Z,18.55
2018-10-03T12:36:00.630Z,18.56
2018-10-03T12:37:00.559Z,18.47
2018-10-03T12:38:00.490Z,18.40
2018-10-03T12:39:00.418Z,18.38
2018-10-03T12:40:00.347Z,19.09
2018-10-03T12:41:00.284Z,18.96
2018-10-03T12:42:00.204Z,18.83
2018-10-03T12:43:00.142Z,18.86
2018-10-03T12:44:00.066Z,19.11
2018-10-03T12:45:00.087Z,19.00
2018-10-03T12:45:59.922Z,18.83
2018-10-03T12:46:59.852Z,19.27
2018-10-03T12:47:59.786Z,20.09
2018-10-03T12:48:59.711Z,20.36
2018-10-03T12:49:59.639Z,20.16
2018-10-03T12:50:59.594Z,19.91
2018-10-03T12:51:59.500Z,20.21
2018-10-03T12:52:59.431Z,20.88
2018-10-03T12:53:59.361Z,20.69
2018-10-03T12:54:59.294Z,20.39
2018-10-03T12:55:59.230Z,20.04
2018-10-03T12:56:59.157Z,19.79
2018-10-03T12:57:59.088Z,19.62
2018-10-03T12:58:59.014Z,19.45
2018-10-03T12:59:58.947Z,19.30
2018-10-03T13:00:58.878Z,19.27
2018-10-03T13:01:58.806Z,19.12
2018-10-03T13:02:58.735Z,19.00
2018-10-03T13:03:58.669Z,18.86
2018-10-03T13:04:58.595Z,18.80
2018-10-03T13:05:58.530Z,18.63
2018-10-03T13:06:58.452Z,18.62
2018-10-03T13:07:58.389Z,18.55
2018-10-03T13:08:58.312Z,18.56
2018-10-03T13:09:58.237Z,18.52
2018-10-03T13:10:58.171Z,18.88
2018-10-03T13:11:58.095Z,19.09